Главная страница
METAR-TAF:

METAR-TAF

Аэропорты :

Кадала

Чита, Россия

широта: 52-05N, долгота: 113-29E, высота над уровнем моря: 685 м

Текущие метеонаблюдения

Эта сводка был подготовлена 35 минут назад, в 10:00 UTC
Ветер 6 Узел от восточно-северо-восточный
Температура -4°C
Влажность 30%
Давление 1013 hPa
Видимость 10 км и более

METAR: UIAA 251000Z 07003MPS 9999 NSC M04/M19 Q1013 R29/410160 NOSIG RMK QFE701/0935

Время: 19:35 (10:35 UTC)

Прогноз

Эта сводка был подготовлена 2 часа и 35 минут назад, в 08:00 UTC
Прогноз действительный с 25-го 09 UTC до 26-го 09 UTC
Ветер 6 Узел от восточный с порывами до 16 Узел
Видимость 10 км и более

TAF: UIAA 250800Z 2509/2609 08003G08MPS 9999 NSC

Метеонаблюдения и прогнозы для более 4000 аэропортов (сводки METAR и TAF).

Имеющиеся станции представлены на карте желтыми и красными точками.

Чтобы увидеть название станции, наведите на нее мышь.

Затем щелкните, чтобы увидеть метеонаблюдения и метеопрогнозы.

Управление картой: чтобы увеличить масштаб, щелкните зеленые кнопки с черным крестиком; чтобы уменьшить масштаб, щелкните зеленую кнопку с тире; для просмотра соседних карт щелкайте зеленые стрелки.


METAR-TAF: